Aviation Digital Data Service (ADDS)

Output produced by TAFs form (0709 UTC 26 March 2017)
found at http://aviationweather.gov/adds/tafs/
 
KMTJ 260532Z 2606/2706 17005KT P6SM VCSH SCT050 OVC070 
     TEMPO 2606/2609 -SHRA OVC050 
     FM260900 19006KT P6SM VCSH BKN045 
     FM261500 VRB03KT P6SM VCSH BKN040 
     FM262000 31004KT P6SM SCT100 
     FM270400 18007KT P6SM SCT200